createdAt,value
2023-02-03T00:00:01.139Z,2.3
2023-02-03T00:01:01.095Z,2.4
2023-02-03T00:02:01.147Z,2.4
2023-02-03T00:03:01.087Z,2.3
2023-02-03T00:04:01.073Z,2.4
2023-02-03T00:05:01.403Z,2.4
2023-02-03T00:06:01.147Z,2.4
2023-02-03T00:07:01.080Z,2.4
2023-02-03T00:08:01.136Z,2.4
2023-02-03T00:09:01.153Z,2.4
2023-02-03T00:10:01.188Z,2.4
2023-02-03T00:11:01.162Z,2.4
2023-02-03T00:12:01.060Z,2.4
2023-02-03T00:13:01.123Z,2.3
2023-02-03T00:14:01.450Z,2.3
2023-02-03T00:15:01.191Z,2.3
2023-02-03T00:16:01.178Z,2.4
2023-02-03T00:17:01.090Z,2.4
2023-02-03T00:18:01.121Z,2.4
2023-02-03T00:19:01.107Z,2.4
2023-02-03T00:20:01.122Z,2.4
2023-02-03T00:21:01.219Z,2.4
2023-02-03T00:22:01.511Z,2.4
2023-02-03T00:23:01.240Z,2.4
2023-02-03T00:24:01.180Z,2.4
2023-02-03T00:25:01.175Z,2.4
2023-02-03T00:26:01.258Z,2.4
2023-02-03T00:27:01.461Z,2.4
2023-02-03T00:28:01.345Z,2.5
2023-02-03T00:29:01.064Z,2.4
2023-02-03T00:30:01.091Z,2.5
2023-02-03T00:31:01.196Z,2.5
2023-02-03T00:32:17.488Z,2.5
2023-02-03T00:33:01.801Z,2.5
2023-02-03T00:34:01.102Z,2.5
2023-02-03T00:35:00.705Z,2.5
2023-02-03T00:36:00.382Z,2.5
2023-02-03T00:37:00.182Z,2.5
2023-02-03T00:37:59.776Z,2.5
2023-02-03T00:39:01.712Z,2.5
2023-02-03T00:40:01.484Z,2.5
2023-02-03T00:41:01.152Z,2.5
2023-02-03T00:42:01.189Z,2.5
2023-02-03T00:43:03.628Z,2.5
2023-02-03T00:44:02.491Z,2.6
2023-02-03T00:45:01.440Z,2.5
2023-02-03T00:46:01.314Z,2.6
2023-02-03T00:47:01.110Z,2.6
2023-02-03T00:48:01.084Z,2.6
2023-02-03T00:49:01.078Z,2.6
2023-02-03T00:50:01.192Z,2.6
2023-02-03T00:51:01.108Z,2.6
2023-02-03T00:52:01.600Z,2.6
2023-02-03T00:53:01.108Z,2.6
2023-02-03T00:54:01.149Z,2.6
2023-02-03T00:55:01.158Z,2.6
2023-02-03T00:56:03.732Z,2.6
2023-02-03T00:57:01.470Z,2.6
2023-02-03T00:58:01.195Z,2.6
2023-02-03T00:59:01.170Z,2.6
2023-02-03T01:00:01.258Z,2.6
2023-02-03T01:01:05.937Z,2.6
2023-02-03T01:02:01.512Z,2.6
2023-02-03T01:03:01.091Z,2.6
2023-02-03T01:04:02.356Z,2.6
2023-02-03T01:05:01.095Z,2.6
2023-02-03T01:06:09.265Z,2.6
2023-02-03T01:07:01.163Z,2.6
2023-02-03T01:08:01.360Z,2.6
2023-02-03T01:09:01.133Z,2.6
2023-02-03T01:10:01.291Z,2.6
2023-02-03T01:11:11.672Z,2.6
2023-02-03T01:12:01.256Z,2.6
2023-02-03T01:13:01.266Z,2.6
2023-02-03T01:14:01.142Z,2.6
2023-02-03T01:15:01.165Z,2.6
2023-02-03T01:16:14.137Z,2.6
2023-02-03T01:17:01.954Z,2.6
2023-02-03T01:18:01.240Z,2.6
2023-02-03T01:19:01.087Z,2.6
2023-02-03T01:20:01.446Z,2.6
2023-02-03T01:21:16.697Z,2.6
2023-02-03T01:22:01.873Z,2.6
2023-02-03T01:23:01.775Z,2.6
2023-02-03T01:24:01.273Z,2.6
2023-02-03T01:25:01.915Z,2.6
2023-02-03T01:26:01.060Z,2.6
2023-02-03T01:27:01.743Z,2.6
2023-02-03T01:28:01.351Z,2.6
2023-02-03T01:29:02.559Z,2.6
2023-02-03T01:30:01.161Z,2.6
2023-02-03T01:31:01.311Z,2.6
2023-02-03T01:32:01.384Z,2.6
2023-02-03T01:33:01.213Z,2.6
2023-02-03T01:34:01.076Z,2.7
2023-02-03T01:35:01.166Z,2.7
2023-02-03T01:36:01.128Z,2.7
2023-02-03T01:37:01.299Z,2.7
2023-02-03T01:38:01.484Z,2.7
2023-02-03T01:39:01.099Z,2.7
2023-02-03T01:40:01.905Z,2.7
2023-02-03T01:41:01.157Z,2.7
2023-02-03T01:42:01.350Z,2.7
2023-02-03T01:43:01.152Z,2.7
2023-02-03T01:44:01.143Z,2.7
2023-02-03T01:45:01.387Z,2.7
2023-02-03T01:46:01.428Z,2.7
2023-02-03T01:47:02.515Z,2.7
2023-02-03T01:48:02.133Z,2.7
2023-02-03T01:49:01.216Z,2.7
2023-02-03T01:50:01.187Z,2.7
2023-02-03T01:51:01.066Z,2.7
2023-02-03T01:52:01.075Z,2.7
2023-02-03T01:53:01.060Z,2.7
2023-02-03T01:54:00.665Z,2.7
2023-02-03T01:55:00.656Z,2.7
2023-02-03T01:56:00.650Z,2.7
2023-02-03T01:57:00.337Z,2.7
2023-02-03T01:58:00.125Z,2.8
2023-02-03T01:58:59.785Z,2.7
2023-02-03T02:00:01.807Z,2.8
2023-02-03T02:01:01.512Z,2.8
2023-02-03T02:02:01.295Z,2.8
2023-02-03T02:03:02.067Z,2.7
2023-02-03T02:04:01.954Z,2.8
2023-02-03T02:05:01.463Z,2.7
2023-02-03T02:06:02.352Z,2.8
2023-02-03T02:07:01.492Z,2.7
2023-02-03T02:08:02.446Z,2.8
2023-02-03T02:09:01.174Z,2.8
2023-02-03T02:10:01.919Z,2.8
2023-02-03T02:11:01.907Z,2.8
2023-02-03T02:12:01.770Z,2.8
2023-02-03T02:13:01.175Z,2.8
2023-02-03T02:14:00.906Z,2.8
2023-02-03T02:15:01.151Z,2.8
2023-02-03T02:16:01.184Z,2.8
2023-02-03T02:17:01.135Z,2.8
2023-02-03T02:18:01.565Z,2.8
2023-02-03T02:19:02.091Z,2.8
2023-02-03T02:20:01.261Z,2.8
2023-02-03T02:21:01.200Z,2.8
2023-02-03T02:22:01.168Z,2.8
2023-02-03T02:23:01.207Z,2.8
2023-02-03T02:24:01.092Z,2.8
2023-02-03T02:25:01.102Z,2.8
2023-02-03T02:26:01.083Z,2.8
2023-02-03T02:27:01.474Z,2.8
2023-02-03T02:28:01.267Z,2.8
2023-02-03T02:29:02.354Z,2.8
2023-02-03T02:30:02.134Z,2.8
2023-02-03T02:31:02.232Z,2.8
2023-02-03T02:32:01.176Z,2.8
2023-02-03T02:33:01.123Z,2.8
2023-02-03T02:34:02.707Z,2.8
2023-02-03T02:35:01.552Z,2.8
2023-02-03T02:36:01.938Z,2.8
2023-02-03T02:37:03.191Z,2.8
2023-02-03T02:38:01.074Z,2.8
2023-02-03T02:39:01.065Z,2.8
2023-02-03T02:40:01.088Z,2.8
2023-02-03T02:41:01.081Z,2.8
2023-02-03T02:42:06.361Z,2.8
2023-02-03T02:43:01.145Z,2.8
2023-02-03T02:44:01.093Z,2.8
2023-02-03T02:45:01.071Z,2.8
2023-02-03T02:46:01.222Z,2.8
2023-02-03T02:47:10.737Z,2.8
2023-02-03T02:48:01.344Z,2.8
2023-02-03T02:49:01.128Z,2.8
2023-02-03T02:50:01.584Z,2.8
2023-02-03T02:51:01.257Z,2.8
2023-02-03T02:52:12.859Z,2.8
2023-02-03T02:53:01.175Z,2.8
2023-02-03T02:54:01.154Z,2.7
2023-02-03T02:55:01.169Z,2.7
2023-02-03T02:56:01.344Z,2.7
2023-02-03T02:57:16.523Z,2.7
2023-02-03T02:58:01.224Z,2.7
2023-02-03T02:59:01.960Z,2.7
2023-02-03T03:00:03.963Z,2.7
2023-02-03T03:01:01.131Z,2.7
2023-02-03T03:02:01.174Z,2.7
2023-02-03T03:03:01.106Z,2.7
2023-02-03T03:04:01.284Z,2.7
2023-02-03T03:05:01.591Z,2.7
2023-02-03T03:06:01.286Z,2.7
2023-02-03T03:07:01.182Z,2.6
2023-02-03T03:08:01.148Z,2.6
2023-02-03T03:09:01.125Z,2.6
2023-02-03T03:10:01.165Z,2.6
2023-02-03T03:11:01.584Z,2.6
2023-02-03T03:12:01.197Z,2.6
2023-02-03T03:13:03.030Z,2.6
2023-02-03T03:14:01.093Z,2.6
2023-02-03T03:15:04.240Z,2.6
2023-02-03T03:16:01.199Z,2.6
2023-02-03T03:17:01.129Z,2.6
2023-02-03T03:18:01.888Z,2.6
2023-02-03T03:19:01.445Z,2.6
2023-02-03T03:20:01.078Z,2.6
2023-02-03T03:21:01.054Z,2.6
2023-02-03T03:22:01.135Z,2.6
2023-02-03T03:23:01.140Z,2.6
2023-02-03T03:24:01.783Z,2.6
2023-02-03T03:25:01.169Z,2.6
2023-02-03T03:26:01.258Z,2.6
2023-02-03T03:27:01.170Z,2.6
2023-02-03T03:28:01.331Z,2.6
2023-02-03T03:29:02.061Z,2.6
2023-02-03T03:30:01.132Z,2.6
2023-02-03T03:31:01.288Z,2.6
2023-02-03T03:32:01.249Z,2.6
2023-02-03T03:33:01.993Z,2.6
2023-02-03T03:34:00.758Z,2.6
2023-02-03T03:35:00.390Z,2.6
2023-02-03T03:36:00.680Z,2.6
2023-02-03T03:37:00.308Z,2.6
2023-02-03T03:37:59.997Z,2.6
2023-02-03T03:38:59.922Z,2.6
2023-02-03T03:39:59.732Z,2.6
2023-02-03T03:41:01.870Z,2.6
2023-02-03T03:42:01.196Z,2.6
2023-02-03T03:43:01.158Z,2.6
2023-02-03T03:44:01.319Z,2.6
2023-02-03T03:45:01.473Z,2.6
2023-02-03T03:46:01.218Z,2.6
2023-02-03T03:47:01.085Z,2.6
2023-02-03T03:48:01.293Z,2.6
2023-02-03T03:49:00.882Z,2.6
2023-02-03T03:50:01.136Z,2.6
2023-02-03T03:51:01.117Z,2.6
2023-02-03T03:52:01.408Z,2.6
2023-02-03T03:53:01.069Z,2.6
2023-02-03T03:54:01.046Z,2.6
2023-02-03T03:55:01.055Z,2.6
2023-02-03T03:56:01.131Z,2.6
2023-02-03T03:57:01.108Z,2.6
2023-02-03T03:58:01.150Z,2.6
2023-02-03T03:59:01.818Z,2.6
2023-02-03T04:00:01.163Z,2.6
2023-02-03T04:01:01.623Z,2.6
2023-02-03T04:02:01.557Z,2.6
2023-02-03T04:03:01.349Z,2.6
2023-02-03T04:04:01.123Z,2.6
2023-02-03T04:05:02.199Z,2.6
2023-02-03T04:06:01.127Z,2.6
2023-02-03T04:07:01.802Z,2.6
2023-02-03T04:08:01.169Z,2.6
2023-02-03T04:09:00.878Z,2.6
2023-02-03T04:10:01.636Z,2.6
2023-02-03T04:11:01.079Z,2.6
2023-02-03T04:12:00.714Z,2.6
2023-02-03T04:13:03.765Z,2.6
2023-02-03T04:14:01.412Z,2.6
2023-02-03T04:15:01.211Z,2.6
2023-02-03T04:16:01.306Z,2.6
2023-02-03T04:17:01.282Z,2.6
2023-02-03T04:18:05.755Z,2.6
2023-02-03T04:19:01.575Z,2.6
2023-02-03T04:20:01.424Z,2.6
2023-02-03T04:21:01.600Z,2.6
2023-02-03T04:22:01.154Z,2.7
2023-02-03T04:23:09.669Z,2.7
2023-02-03T04:24:03.967Z,2.7
2023-02-03T04:25:01.808Z,2.7
2023-02-03T04:26:01.161Z,2.7
2023-02-03T04:27:01.144Z,2.7
2023-02-03T04:28:11.675Z,2.7
2023-02-03T04:29:00.847Z,2.7
2023-02-03T04:30:00.544Z,2.7
2023-02-03T04:31:00.267Z,2.7
2023-02-03T04:31:59.996Z,2.7
2023-02-03T04:33:14.547Z,2.8
2023-02-03T04:34:01.146Z,2.7
2023-02-03T04:35:01.885Z,2.8
2023-02-03T04:36:02.110Z,2.8
2023-02-03T04:37:02.167Z,2.8
2023-02-03T04:38:01.107Z,2.8
2023-02-03T04:39:01.132Z,2.8
2023-02-03T04:40:02.064Z,2.8
2023-02-03T04:41:01.921Z,2.8
2023-02-03T04:42:01.064Z,2.8
2023-02-03T04:43:01.626Z,2.8
2023-02-03T04:44:00.835Z,2.8
2023-02-03T04:45:00.538Z,2.8
2023-02-03T04:46:00.372Z,2.8
2023-02-03T04:47:00.142Z,2.8
2023-02-03T04:47:59.824Z,2.8
2023-02-03T04:49:02.560Z,2.8
2023-02-03T04:50:01.717Z,2.9
2023-02-03T04:51:02.331Z,2.9
2023-02-03T04:52:01.595Z,2.9
2023-02-03T04:53:02.109Z,2.9
2023-02-03T04:54:01.142Z,2.9
2023-02-03T04:55:01.816Z,3
2023-02-03T04:56:01.821Z,3
2023-02-03T04:57:01.399Z,3
2023-02-03T04:58:02.170Z,3
2023-02-03T04:59:02.503Z,3
2023-02-03T05:00:01.114Z,3
2023-02-03T05:01:01.262Z,3
2023-02-03T05:02:01.196Z,3
2023-02-03T05:03:01.230Z,3.1
2023-02-03T05:04:01.480Z,3.1
2023-02-03T05:05:01.966Z,3.1
2023-02-03T05:06:01.450Z,3.1
2023-02-03T05:07:02.133Z,3.1
2023-02-03T05:08:02.786Z,3.2
2023-02-03T05:09:01.048Z,3.2
2023-02-03T05:10:01.059Z,3.2
2023-02-03T05:11:02.256Z,3.3
2023-02-03T05:12:01.084Z,3.3
2023-02-03T05:13:01.109Z,3.3
2023-02-03T05:14:02.147Z,3.3
2023-02-03T05:15:02.001Z,3.3
2023-02-03T05:16:02.245Z,3.4
2023-02-03T05:17:01.438Z,3.4
2023-02-03T05:18:04.201Z,3.5
2023-02-03T05:19:02.582Z,3.5
2023-02-03T05:20:01.145Z,3.5
2023-02-03T05:21:01.884Z,3.5
2023-02-03T05:22:01.175Z,3.6
2023-02-03T05:23:01.621Z,3.6
2023-02-03T05:24:01.482Z,3.6
2023-02-03T05:25:01.166Z,3.6
2023-02-03T05:26:02.419Z,3.6
2023-02-03T05:27:02.516Z,3.6
2023-02-03T05:28:01.540Z,3.6
2023-02-03T05:29:01.428Z,3.7
2023-02-03T05:30:01.817Z,3.7
2023-02-03T05:31:01.680Z,3.8
2023-02-03T05:32:01.724Z,3.8
2023-02-03T05:33:02.323Z,3.8
2023-02-03T05:34:01.039Z,3.8
2023-02-03T05:35:01.352Z,3.8
2023-02-03T05:36:01.167Z,3.8
2023-02-03T05:37:01.860Z,3.8
2023-02-03T05:38:01.492Z,3.8
2023-02-03T05:39:01.178Z,3.9
2023-02-03T05:40:00.854Z,3.9
2023-02-03T05:41:01.092Z,3.9
2023-02-03T05:42:01.090Z,3.9
2023-02-03T05:43:01.091Z,3.9
2023-02-03T05:44:01.094Z,4
2023-02-03T05:45:01.131Z,4
2023-02-03T05:46:01.270Z,4
2023-02-03T05:47:01.136Z,4
2023-02-03T05:48:01.129Z,4
2023-02-03T05:49:01.437Z,4.1
2023-02-03T05:50:01.057Z,4.1
2023-02-03T05:51:01.153Z,4.1
2023-02-03T05:52:01.157Z,4.1
2023-02-03T05:53:01.861Z,4.2
2023-02-03T05:54:01.452Z,4.1
2023-02-03T05:55:01.064Z,4.2
2023-02-03T05:56:01.106Z,4.2
2023-02-03T05:57:01.085Z,4.2
2023-02-03T05:58:01.130Z,4.2
2023-02-03T05:59:02.017Z,4.2
2023-02-03T06:00:01.088Z,4.2
2023-02-03T06:01:01.136Z,4.2
2023-02-03T06:02:01.099Z,4.3
2023-02-03T06:03:01.146Z,4.3
2023-02-03T06:04:05.380Z,4.3
2023-02-03T06:05:01.247Z,4.3
2023-02-03T06:06:01.517Z,4.4
2023-02-03T06:07:02.712Z,4.4
2023-02-03T06:08:01.187Z,4.4
2023-02-03T06:09:09.144Z,4.5
2023-02-03T06:10:01.176Z,4.5
2023-02-03T06:11:01.190Z,4.5
2023-02-03T06:12:01.615Z,4.5
2023-02-03T06:13:01.893Z,4.6
2023-02-03T06:14:11.011Z,4.6
2023-02-03T06:15:00.528Z,4.6
2023-02-03T06:16:00.191Z,4.6
2023-02-03T06:16:59.940Z,4.6
2023-02-03T06:17:59.664Z,4.6
2023-02-03T06:19:14.586Z,4.6
2023-02-03T06:20:01.843Z,4.6
2023-02-03T06:21:01.121Z,4.7
2023-02-03T06:22:01.182Z,4.8
2023-02-03T06:23:01.183Z,4.8
2023-02-03T06:24:14.179Z,4.8
2023-02-03T06:25:01.482Z,4.9
2023-02-03T06:26:01.181Z,4.9
2023-02-03T06:27:01.205Z,5
2023-02-03T06:28:01.250Z,5
2023-02-03T06:29:16.520Z,5
2023-02-03T06:30:01.185Z,5
2023-02-03T06:31:02.887Z,5
2023-02-03T06:32:01.287Z,5
2023-02-03T06:33:01.104Z,5
2023-02-03T06:34:01.103Z,5
2023-02-03T06:35:01.073Z,5.1
2023-02-03T06:36:01.056Z,5.1
2023-02-03T06:37:00.824Z,5.1
2023-02-03T06:38:00.403Z,5.2
2023-02-03T06:39:00.131Z,5.2
2023-02-03T06:39:59.810Z,5.2
2023-02-03T06:41:01.759Z,5.3
2023-02-03T06:42:01.242Z,5.3
2023-02-03T06:43:01.177Z,5.3
2023-02-03T06:44:01.065Z,5.3
2023-02-03T06:45:01.062Z,5.3
2023-02-03T06:46:01.148Z,5.3
2023-02-03T06:47:01.104Z,5.3
2023-02-03T06:48:04.191Z,5.4
2023-02-03T06:49:01.148Z,5.4
2023-02-03T06:50:01.213Z,5.4
2023-02-03T06:51:01.117Z,5.4
2023-02-03T06:52:01.133Z,5.4
2023-02-03T06:53:01.144Z,5.5
2023-02-03T06:54:01.071Z,5.4
2023-02-03T06:55:01.133Z,5.4
2023-02-03T06:56:01.286Z,5.5
2023-02-03T06:57:00.933Z,5.4
2023-02-03T06:58:01.166Z,5.4
2023-02-03T06:59:01.098Z,5.4
2023-02-03T07:00:01.590Z,5.4
2023-02-03T07:01:01.986Z,5.4
2023-02-03T07:02:01.090Z,5.5
2023-02-03T07:03:00.816Z,5.5
2023-02-03T07:04:00.599Z,5.5
2023-02-03T07:05:00.258Z,5.5
2023-02-03T07:05:59.926Z,5.4
2023-02-03T07:06:59.567Z,5.4
2023-02-03T07:08:01.207Z,5.5
2023-02-03T07:09:01.950Z,5.5
2023-02-03T07:10:01.135Z,5.5
2023-02-03T07:11:01.132Z,5.5
2023-02-03T07:12:01.169Z,5.5
2023-02-03T07:13:01.164Z,5.5
2023-02-03T07:14:01.224Z,5.5
2023-02-03T07:15:02.233Z,5.5
2023-02-03T07:16:01.246Z,5.5
2023-02-03T07:17:01.149Z,5.5
2023-02-03T07:18:01.991Z,5.6
2023-02-03T07:19:01.277Z,5.6
2023-02-03T07:20:01.057Z,5.6
2023-02-03T07:21:01.089Z,5.6
2023-02-03T07:22:01.108Z,5.6
2023-02-03T07:23:01.122Z,5.6
2023-02-03T07:24:01.211Z,5.6
2023-02-03T07:25:01.070Z,5.6
2023-02-03T07:26:01.297Z,5.6
2023-02-03T07:27:04.175Z,5.6
2023-02-03T07:28:01.200Z,5.6
2023-02-03T07:29:01.960Z,5.6
2023-02-03T07:30:01.931Z,5.6
2023-02-03T07:31:01.335Z,5.6
2023-02-03T07:32:02.882Z,5.7
2023-02-03T07:33:02.595Z,5.7
2023-02-03T07:34:01.860Z,5.7
2023-02-03T07:35:01.387Z,5.8
2023-02-03T07:36:02.092Z,5.8
2023-02-03T07:37:01.085Z,5.8
2023-02-03T07:38:00.780Z,5.8
2023-02-03T07:39:00.535Z,5.8
2023-02-03T07:40:00.160Z,5.8
2023-02-03T07:41:00.122Z,5.8
2023-02-03T07:41:59.785Z,5.8
2023-02-03T07:43:02.122Z,5.9
2023-02-03T07:44:02.147Z,5.9
2023-02-03T07:45:01.075Z,5.9
2023-02-03T07:46:01.049Z,5.9
2023-02-03T07:47:01.063Z,5.9
2023-02-03T07:48:01.066Z,5.9
2023-02-03T07:49:01.163Z,5.9
2023-02-03T07:50:00.911Z,5.9
2023-02-03T07:51:01.448Z,5.9
2023-02-03T07:52:03.965Z,6
2023-02-03T07:53:01.087Z,5.9
2023-02-03T07:54:01.109Z,6
2023-02-03T07:55:03.620Z,6
2023-02-03T07:56:01.112Z,6
2023-02-03T07:57:01.176Z,6
2023-02-03T07:58:03.224Z,6
2023-02-03T07:59:01.136Z,6
2023-02-03T08:00:06.661Z,6
2023-02-03T08:01:01.257Z,6
2023-02-03T08:02:01.225Z,6
2023-02-03T08:03:01.334Z,6
2023-02-03T08:04:01.154Z,6
2023-02-03T08:05:09.445Z,6
2023-02-03T08:06:01.063Z,6
2023-02-03T08:07:01.293Z,6
2023-02-03T08:08:01.328Z,6
2023-02-03T08:09:02.617Z,6
2023-02-03T08:10:12.915Z,6
2023-02-03T08:11:02.621Z,6
2023-02-03T08:12:01.556Z,6
2023-02-03T08:13:01.235Z,6
2023-02-03T08:14:00.995Z,6
2023-02-03T08:15:15.221Z,6
2023-02-03T08:16:01.514Z,6
2023-02-03T08:17:01.468Z,6
2023-02-03T08:18:02.059Z,6.1
2023-02-03T08:19:01.160Z,6.1
2023-02-03T08:20:01.170Z,6.1
2023-02-03T08:21:01.258Z,6.1
2023-02-03T08:22:01.407Z,6.1
2023-02-03T08:23:01.075Z,6.1
2023-02-03T08:24:01.089Z,6.1
2023-02-03T08:25:01.087Z,6.1
2023-02-03T08:26:01.481Z,6.2
2023-02-03T08:27:01.136Z,6.2
2023-02-03T08:28:01.157Z,6.2
2023-02-03T08:29:01.133Z,6.2
2023-02-03T08:30:00.477Z,6.2
2023-02-03T08:31:00.387Z,6.2
2023-02-03T08:32:00.251Z,6.2
2023-02-03T08:32:59.888Z,6.3
2023-02-03T08:33:59.524Z,6.3
2023-02-03T08:35:01.144Z,6.3
2023-02-03T08:36:01.198Z,6.3
2023-02-03T08:37:01.174Z,6.3
2023-02-03T08:38:00.802Z,6.3
2023-02-03T08:39:00.447Z,6.3
2023-02-03T08:40:00.262Z,6.3
2023-02-03T08:40:59.949Z,6.3
2023-02-03T08:41:59.564Z,6.3
2023-02-03T08:43:01.223Z,6.3
2023-02-03T08:44:01.173Z,6.3
2023-02-03T08:45:02.839Z,6.3
2023-02-03T08:46:01.213Z,6.3
2023-02-03T08:47:01.132Z,6.3
2023-02-03T08:48:01.123Z,6.4
2023-02-03T08:49:01.083Z,6.4
2023-02-03T08:50:01.149Z,6.4
2023-02-03T08:51:01.552Z,6.4
2023-02-03T08:52:01.264Z,6.4
2023-02-03T08:53:01.968Z,6.4
2023-02-03T08:54:01.161Z,6.4
2023-02-03T08:55:01.081Z,6.4
2023-02-03T08:56:01.072Z,6.4
2023-02-03T08:57:01.100Z,6.4
2023-02-03T08:58:01.208Z,6.4
2023-02-03T08:59:01.454Z,6.4
2023-02-03T09:00:01.481Z,6.4
2023-02-03T09:01:01.251Z,6.4
2023-02-03T09:02:01.972Z,6.4
2023-02-03T09:03:02.126Z,6.4
2023-02-03T09:04:01.195Z,6.4
2023-02-03T09:05:01.231Z,6.4
2023-02-03T09:06:01.493Z,6.4
2023-02-03T09:07:02.270Z,6.4
2023-02-03T09:08:01.253Z,6.5
2023-02-03T09:09:02.011Z,6.5
2023-02-03T09:10:00.861Z,6.5
2023-02-03T09:11:00.663Z,6.5
2023-02-03T09:12:00.464Z,6.5
2023-02-03T09:13:00.166Z,6.5
2023-02-03T09:13:59.858Z,6.5
2023-02-03T09:15:01.490Z,6.5
2023-02-03T09:16:01.098Z,6.5
2023-02-03T09:17:00.868Z,6.5
2023-02-03T09:18:01.498Z,6.5
2023-02-03T09:19:01.288Z,6.5
2023-02-03T09:20:01.226Z,6.5
2023-02-03T09:21:01.155Z,6.5
2023-02-03T09:22:01.170Z,6.5
2023-02-03T09:23:02.471Z,6.5
2023-02-03T09:24:02.495Z,6.5
2023-02-03T09:25:02.176Z,6.5
2023-02-03T09:26:01.575Z,6.5
2023-02-03T09:27:01.216Z,6.5
2023-02-03T09:28:01.159Z,6.5
2023-02-03T09:29:01.899Z,6.5
2023-02-03T09:30:01.093Z,6.5
2023-02-03T09:31:01.188Z,6.5
2023-02-03T09:32:01.913Z,6.5
2023-02-03T09:33:01.789Z,6.5
2023-02-03T09:34:02.125Z,6.5
2023-02-03T09:35:01.500Z,6.5
2023-02-03T09:36:01.736Z,6.5
2023-02-03T09:37:01.045Z,6.5
2023-02-03T09:38:01.128Z,6.5
2023-02-03T09:39:01.166Z,6.5
2023-02-03T09:40:01.171Z,6.5
2023-02-03T09:41:11.542Z,6.5
2023-02-03T09:42:01.463Z,6.5
2023-02-03T09:43:01.066Z,6.5
2023-02-03T09:44:01.615Z,6.5
2023-02-03T09:45:01.420Z,6.5
2023-02-03T09:46:06.229Z,6.6
2023-02-03T09:47:01.506Z,6.5
2023-02-03T09:48:02.216Z,6.5
2023-02-03T09:49:01.818Z,6.5
2023-02-03T09:50:01.225Z,6.5
2023-02-03T09:51:09.065Z,6.5
2023-02-03T09:52:02.142Z,6.6
2023-02-03T09:53:01.134Z,6.5
2023-02-03T09:54:01.377Z,6.6
2023-02-03T09:55:01.415Z,6.6
2023-02-03T09:56:12.031Z,6.6
2023-02-03T09:57:00.965Z,6.6
2023-02-03T09:58:01.070Z,6.6
2023-02-03T09:59:01.261Z,6.6
2023-02-03T10:00:01.093Z,6.6
2023-02-03T10:01:16.308Z,6.6
2023-02-03T10:02:01.571Z,6.6
2023-02-03T10:03:01.292Z,6.6
2023-02-03T10:04:01.426Z,6.6
2023-02-03T10:05:04.215Z,6.6
2023-02-03T10:06:01.417Z,6.6
2023-02-03T10:07:01.177Z,6.6
2023-02-03T10:08:01.125Z,6.6
2023-02-03T10:09:01.181Z,6.6
2023-02-03T10:10:01.189Z,6.6
2023-02-03T10:11:01.179Z,6.6
2023-02-03T10:12:01.206Z,6.6
2023-02-03T10:13:02.101Z,6.6
2023-02-03T10:14:01.181Z,6.6
2023-02-03T10:15:01.168Z,6.6
2023-02-03T10:16:01.091Z,6.6
2023-02-03T10:17:00.862Z,6.6
2023-02-03T10:18:01.089Z,6.6
2023-02-03T10:19:03.843Z,6.6
2023-02-03T10:20:01.474Z,6.6
2023-02-03T10:21:01.792Z,6.6
2023-02-03T10:22:01.811Z,6.6
2023-02-03T10:23:01.937Z,6.6
2023-02-03T10:24:01.797Z,6.6
2023-02-03T10:25:01.116Z,6.6
2023-02-03T10:26:01.129Z,6.6
2023-02-03T10:27:01.159Z,6.6
2023-02-03T10:28:01.622Z,6.6
2023-02-03T10:29:02.065Z,6.6
2023-02-03T10:30:02.801Z,6.6
2023-02-03T10:31:01.326Z,6.6
2023-02-03T10:32:01.284Z,6.6
2023-02-03T10:33:02.628Z,6.6
2023-02-03T10:34:01.170Z,6.6
2023-02-03T10:35:01.559Z,6.6
2023-02-03T10:36:01.203Z,6.6
2023-02-03T10:37:00.777Z,6.6
2023-02-03T10:38:00.573Z,6.6
2023-02-03T10:39:00.197Z,6.6
2023-02-03T10:39:59.864Z,6.6
2023-02-03T10:41:03.119Z,6.6
2023-02-03T10:42:01.940Z,6.6
2023-02-03T10:43:01.550Z,6.6
2023-02-03T10:44:01.574Z,6.6
2023-02-03T10:45:01.191Z,6.6
2023-02-03T10:46:01.192Z,6.6
2023-02-03T10:47:01.157Z,6.6
2023-02-03T10:48:01.251Z,6.6
2023-02-03T10:49:02.401Z,6.6
2023-02-03T10:50:01.129Z,6.7
2023-02-03T10:51:01.091Z,6.7
2023-02-03T10:52:01.471Z,6.7
2023-02-03T10:53:01.200Z,6.7
2023-02-03T10:54:04.178Z,6.7
2023-02-03T10:55:01.794Z,6.7
2023-02-03T10:56:01.133Z,6.7
2023-02-03T10:57:01.130Z,6.7
2023-02-03T10:58:01.804Z,6.7
2023-02-03T10:59:01.743Z,6.7
2023-02-03T11:00:01.437Z,6.7
2023-02-03T11:01:01.163Z,6.8
2023-02-03T11:02:03.918Z,6.8
2023-02-03T11:03:02.465Z,6.8
2023-02-03T11:04:01.203Z,6.8
2023-02-03T11:05:02.423Z,6.8
2023-02-03T11:06:01.085Z,6.8
2023-02-03T11:07:01.076Z,6.8
2023-02-03T11:08:01.194Z,6.8
2023-02-03T11:09:01.447Z,6.8
2023-02-03T11:10:01.996Z,6.8
2023-02-03T11:11:02.209Z,6.9
2023-02-03T11:12:01.336Z,6.8
2023-02-03T11:13:01.109Z,6.9
2023-02-03T11:14:01.112Z,6.9
2023-02-03T11:15:01.569Z,6.9
2023-02-03T11:16:01.585Z,6.9
2023-02-03T11:17:02.688Z,6.9
2023-02-03T11:18:01.835Z,6.9
2023-02-03T11:19:01.809Z,6.9
2023-02-03T11:20:02.469Z,6.9
2023-02-03T11:21:02.538Z,6.9
2023-02-03T11:22:04.582Z,6.9
2023-02-03T11:23:01.760Z,6.9
2023-02-03T11:24:01.483Z,6.9
2023-02-03T11:25:01.422Z,6.9
2023-02-03T11:26:01.191Z,6.9
2023-02-03T11:27:08.576Z,6.9
2023-02-03T11:28:01.996Z,7
2023-02-03T11:29:01.312Z,7
2023-02-03T11:30:01.561Z,7
2023-02-03T11:31:01.265Z,7
2023-02-03T11:32:10.347Z,7
2023-02-03T11:33:01.577Z,7
2023-02-03T11:34:02.057Z,7
2023-02-03T11:35:01.357Z,7
2023-02-03T11:36:01.158Z,7
2023-02-03T11:37:13.555Z,7
2023-02-03T11:38:00.646Z,7
2023-02-03T11:39:00.351Z,7.1
2023-02-03T11:39:59.947Z,7.1
2023-02-03T11:40:59.896Z,7.1
2023-02-03T11:42:15.179Z,7.1
2023-02-03T11:43:01.499Z,7.1
2023-02-03T11:44:03.950Z,7.1
2023-02-03T11:45:01.171Z,7.1
2023-02-03T11:46:01.177Z,7.1
2023-02-03T11:47:01.300Z,7.1
2023-02-03T11:48:01.933Z,7.1
2023-02-03T11:49:02.059Z,7.1
2023-02-03T11:50:01.275Z,7.1
2023-02-03T11:51:01.277Z,7.1
2023-02-03T11:52:01.305Z,7.2
2023-02-03T11:53:02.280Z,7.2
2023-02-03T11:54:01.073Z,7.2
2023-02-03T11:55:01.075Z,7.2
2023-02-03T11:56:01.073Z,7.2
2023-02-03T11:57:01.191Z,7.2
2023-02-03T11:58:01.709Z,7.2
2023-02-03T11:59:02.792Z,7.2
2023-02-03T12:00:01.907Z,7.2
2023-02-03T12:01:01.929Z,7.3
2023-02-03T12:02:02.197Z,7.2
2023-02-03T12:03:01.557Z,7.2
2023-02-03T12:04:01.946Z,7.2
2023-02-03T12:05:01.374Z,7.2
2023-02-03T12:06:02.614Z,7.2
2023-02-03T12:07:01.542Z,7.1
2023-02-03T12:08:01.164Z,6.8
2023-02-03T12:09:01.163Z,6.6
2023-02-03T12:10:01.158Z,6.4
2023-02-03T12:11:01.078Z,6.2
2023-02-03T12:12:01.082Z,6.1
2023-02-03T12:13:01.081Z,6.1
2023-02-03T12:14:01.090Z,6.1
2023-02-03T12:15:01.483Z,6
2023-02-03T12:16:01.151Z,6.1
2023-02-03T12:17:03.984Z,6
2023-02-03T12:18:01.425Z,6
2023-02-03T12:19:01.084Z,6.1
2023-02-03T12:20:01.152Z,6.1
2023-02-03T12:21:01.059Z,6.2
2023-02-03T12:22:01.159Z,6.3
2023-02-03T12:23:01.183Z,6.3
2023-02-03T12:24:01.601Z,6.4
2023-02-03T12:25:01.188Z,6.4
2023-02-03T12:26:01.271Z,6.5
2023-02-03T12:27:01.078Z,6.5
2023-02-03T12:28:01.963Z,6.5
2023-02-03T12:29:01.090Z,6.5
2023-02-03T12:30:01.372Z,6.6
2023-02-03T12:31:01.126Z,6.6
2023-02-03T12:32:00.954Z,6.6
2023-02-03T12:33:01.678Z,6.6
2023-02-03T12:34:01.628Z,6.6
2023-02-03T12:35:02.193Z,6.7
2023-02-03T12:36:01.795Z,6.7
2023-02-03T12:37:01.421Z,6.7
2023-02-03T12:38:01.165Z,6.7
2023-02-03T12:39:01.145Z,6.8
2023-02-03T12:40:01.315Z,6.8
2023-02-03T12:41:01.344Z,6.8
2023-02-03T12:42:01.352Z,6.8
2023-02-03T12:43:04.096Z,6.8
2023-02-03T12:44:02.140Z,6.9
2023-02-03T12:45:01.081Z,7
2023-02-03T12:46:01.186Z,7
2023-02-03T12:47:01.080Z,7.1
2023-02-03T12:48:01.225Z,7.1
2023-02-03T12:49:01.102Z,7.2
2023-02-03T12:50:01.515Z,7.3
2023-02-03T12:51:01.227Z,7.4
2023-02-03T12:52:01.127Z,7.4
2023-02-03T12:53:01.132Z,7.5
2023-02-03T12:54:01.147Z,7.5
2023-02-03T12:55:01.157Z,7.5
2023-02-03T12:56:01.167Z,7.5
2023-02-03T12:57:01.154Z,7.5
2023-02-03T12:58:00.960Z,7.5
2023-02-03T12:59:01.436Z,7.5
2023-02-03T13:00:01.183Z,7.5
2023-02-03T13:01:02.260Z,7.4
2023-02-03T13:02:02.167Z,7.4
2023-02-03T13:03:03.295Z,7.4
2023-02-03T13:04:01.111Z,7.4
2023-02-03T13:05:01.173Z,7.4
2023-02-03T13:06:01.129Z,7.4
2023-02-03T13:07:01.236Z,7.4
2023-02-03T13:08:05.759Z,7.5
2023-02-03T13:09:01.371Z,7.5
2023-02-03T13:10:01.174Z,7.5
2023-02-03T13:11:01.788Z,7.5
2023-02-03T13:12:02.049Z,7.6
2023-02-03T13:13:09.139Z,7.6
2023-02-03T13:14:01.156Z,7.7
2023-02-03T13:15:01.161Z,7.7
2023-02-03T13:16:01.065Z,7.8
2023-02-03T13:17:01.083Z,7.8
2023-02-03T13:18:08.894Z,7.8
2023-02-03T13:19:01.086Z,7.9
2023-02-03T13:20:01.119Z,7.9
2023-02-03T13:21:01.171Z,7.9
2023-02-03T13:22:01.113Z,8
2023-02-03T13:23:10.906Z,8
2023-02-03T13:24:01.526Z,8
2023-02-03T13:25:01.181Z,8
2023-02-03T13:26:01.143Z,8
2023-02-03T13:27:01.126Z,8
2023-02-03T13:28:14.788Z,8
2023-02-03T13:29:01.146Z,8
2023-02-03T13:30:01.149Z,8
2023-02-03T13:31:01.262Z,8
2023-02-03T13:32:01.119Z,8
2023-02-03T13:33:16.730Z,8
2023-02-03T13:34:01.165Z,8
2023-02-03T13:35:01.092Z,8
2023-02-03T13:36:01.086Z,7.9
2023-02-03T13:37:01.094Z,8
2023-02-03T13:38:01.133Z,8
2023-02-03T13:39:01.707Z,7.9
2023-02-03T13:40:00.797Z,8
2023-02-03T13:41:00.914Z,8
2023-02-03T13:42:01.503Z,8
2023-02-03T13:43:01.127Z,8
2023-02-03T13:44:01.151Z,8
2023-02-03T13:45:01.150Z,8
2023-02-03T13:46:01.188Z,7.9
2023-02-03T13:47:01.162Z,7.9
2023-02-03T13:48:01.057Z,7.9
2023-02-03T13:49:01.448Z,7.8
2023-02-03T13:50:01.899Z,7.8
2023-02-03T13:51:02.407Z,7.8